Time;durP1;ratioP1;P1;durP2;ratioP2;P2;SDS_P1;SDS_P2;PMS_P1;PMS_P2;Temp;Humidity;BMP_temperature;BMP_pressure;BME280_temperature;BME280_humidity;BME280_pressure;Samples;Min_cycle;Max_cycle;Signal;HPM_P1;HPM_P2
2022/04/22 00:01:15;;;;;;;;;;;;;;;21.14;40.00;100756.34;4954099;29;19923;-81
2022/04/22 00:03:40;;;;;;;;;;;;;;;21.14;40.07;100761.84;4966150;28;19923;-81
2022/04/22 00:06:06;;;;;;;;;;;;;;;21.13;40.33;100753.91;4948316;29;19941;-81
2022/04/22 00:08:31;;;;;;;;;;;;;;;21.13;40.02;100753.91;4960959;28;20014;-81
2022/04/22 00:11:29;;;;;;;;;;;;;;;21.12;40.22;100753.09;4969179;28;19946;-81
2022/04/22 00:13:48;;;;;;;;;;;;;;;21.12;40.28;100747.59;4964776;28;19922;-81
2022/04/22 00:16:13;;;;;;;;;;;;;;;21.12;40.15;100753.09;4953802;29;20421;-81
2022/04/22 00:18:38;;;;;;;;;;;;;;;21.12;40.18;100755.84;4953237;28;19926;-82
2022/04/22 00:21:04;;;;;;;;;;;;;;;21.11;40.17;100756.94;4966052;28;19931;-82
2022/04/22 00:23:29;;;;;;;;;;;;;;;21.11;40.11;100747.91;4939676;29;20318;-82
2022/04/22 00:25:54;;;;;;;;;;;;;;;21.10;40.13;100746.28;4953028;29;19938;-81
2022/04/22 00:28:20;;;;;;;;;;;;;;;21.09;40.17;100751.00;4951257;29;19927;-81
2022/04/22 00:30:46;;;;;;;;;;;;;;;21.09;40.32;100742.75;4935448;28;19923;-81
2022/04/22 00:33:11;;;;;;;;;;;;;;;21.10;40.17;100738.06;4937447;29;19961;-81
2022/04/22 00:35:36;;;;;;;;;;;;;;;21.09;40.09;100748.25;4950899;28;19955;-82
2022/04/22 00:38:02;;;;;;;;;;;;;;;21.09;40.31;100750.16;4934179;29;20372;-81
2022/04/22 00:40:27;;;;;;;;;;;;;;;21.08;40.24;100745.78;4951308;29;20076;-81
2022/04/22 00:42:53;;;;;;;;;;;;;;;21.07;40.12;100746.94;4952313;29;19923;-82
2022/04/22 00:45:19;;;;;;;;;;;;;;;21.07;40.25;100744.19;4953919;28;20009;-81
2022/04/22 00:47:45;;;;;;;;;;;;;;;21.07;40.24;100739.50;4950366;28;20319;-82
2022/04/22 00:50:10;;;;;;;;;;;;;;;21.06;40.31;100739.81;4940961;29;20029;-82
2022/04/22 00:52:36;;;;;;;;;;;;;;;21.06;40.39;100735.09;4947057;29;20013;-81
2022/04/22 00:55:01;;;;;;;;;;;;;;;21.06;40.12;100734.31;4947558;29;19927;-81
2022/04/22 00:57:27;;;;;;;;;;;;;;;21.05;40.24;100725.25;4947596;29;19922;-82
2022/04/22 00:59:52;;;;;;;;;;;;;;;21.04;40.04;100729.16;4953917;29;20006;-82
2022/04/22 01:02:17;;;;;;;;;;;;;;;21.05;40.21;100730.75;4954109;28;19964;-81
2022/04/22 01:10:11;;;;;;;;;;;;;;;21.03;40.06;100712.97;4951522;29;19934;-82
2022/04/22 01:12:37;;;;;;;;;;;;;;;21.03;40.29;100710.22;4951230;28;19927;-81
2022/04/22 01:15:02;;;;;;;;;;;;;;;21.02;40.33;100711.34;4937730;29;19922;-82
2022/04/22 01:17:27;;;;;;;;;;;;;;;21.03;40.36;100712.97;4944590;29;19929;-81
2022/04/22 01:19:57;;;;;;;;;;;;;;;21.02;40.25;100716.84;4955113;28;19926;-81
2022/04/22 01:22:22;;;;;;;;;;;;;;;21.02;39.96;100703.94;4956186;28;19973;-81
2022/04/22 01:24:51;;;;;;;;;;;;;;;21.01;40.22;100701.47;4971210;28;19969;-81
2022/04/22 01:27:17;;;;;;;;;;;;;;;21.00;40.34;100700.69;4943268;28;20009;-81
2022/04/22 01:29:43;;;;;;;;;;;;;;;21.01;40.37;100704.22;4957208;28;19973;-82
2022/04/22 01:32:08;;;;;;;;;;;;;;;21.01;40.01;100706.97;4957659;29;19926;-81
2022/04/22 01:34:34;;;;;;;;;;;;;;;21.00;40.34;100697.94;4956331;28;19922;-81
2022/04/22 01:36:59;;;;;;;;;;;;;;;21.00;40.05;100697.94;4956666;28;19922;-81
2022/04/22 01:39:24;;;;;;;;;;;;;;;20.99;40.15;100701.81;4953108;29;19923;-81
2022/04/22 01:41:49;;;;;;;;;;;;;;;20.98;40.06;100693.88;4944915;29;19926;-81
2022/04/22 01:44:14;;;;;;;;;;;;;;;20.98;40.19;100691.13;4971702;28;19958;-81
2022/04/22 01:46:40;;;;;;;;;;;;;;;20.98;40.12;100689.19;4956583;29;19926;-81
2022/04/22 01:49:05;;;;;;;;;;;;;;;20.99;40.04;100698.22;4954914;29;19930;-81
2022/04/22 01:51:30;;;;;;;;;;;;;;;20.98;40.22;100691.94;4948556;28;20378;-81
2022/04/22 01:53:56;;;;;;;;;;;;;;;20.97;40.21;100687.59;4971723;28;19959;-81
2022/04/22 01:56:21;;;;;;;;;;;;;;;20.96;40.39;100689.53;4954304;29;19930;-81
2022/04/22 01:58:47;;;;;;;;;;;;;;;20.97;40.29;100695.81;4938400;29;19923;-82
2022/04/22 02:01:12;;;;;;;;;;;;;;;20.96;40.06;100700.50;4946917;29;19919;-81
2022/04/22 02:03:37;;;;;;;;;;;;;;;20.96;39.96;100697.75;4971233;28;19930;-81
2022/04/22 02:06:04;;;;;;;;;;;;;;;20.95;40.13;100689.81;4952923;28;20407;-81
2022/04/22 02:08:31;;;;;;;;;;;;;;;20.95;40.11;100695.31;4951744;29;19950;-81
2022/04/22 02:10:56;;;;;;;;;;;;;;;20.94;40.25;100696.44;4968202;28;20345;-81
2022/04/22 02:13:21;;;;;;;;;;;;;;;20.95;40.23;100692.56;4950041;29;19973;-81
2022/04/22 02:15:46;;;;;;;;;;;;;;;20.93;40.26;100684.63;4956153;29;19926;-82
2022/04/22 02:18:12;;;;;;;;;;;;;;;20.94;40.34;100682.69;4951301;29;19922;-81
2022/04/22 02:20:37;;;;;;;;;;;;;;;20.94;40.25;100679.94;4940095;29;19974;-81
2022/04/22 02:23:02;;;;;;;;;;;;;;;20.93;40.17;100670.91;4955140;29;20319;-81
2022/04/22 02:25:27;;;;;;;;;;;;;;;20.93;40.20;100681.09;4970656;28;19923;-81
2022/04/22 02:30:36;;;;;;;;;;;;;;;20.92;40.19;100676.72;4940284;29;19986;-81
2022/04/22 02:33:01;;;;;;;;;;;;;;;20.91;40.04;100677.84;4950287;29;19926;-82
2022/04/22 02:35:26;;;;;;;;;;;;;;;20.91;40.04;100675.09;4970862;28;19927;-81
2022/04/22 02:37:55;;;;;;;;;;;;;;;20.91;40.01;100675.91;4969216;28;20029;-81
2022/04/22 02:45:48;;;;;;;;;;;;;;;20.89;39.99;100674.59;4955574;29;20395;-82
2022/04/22 02:48:13;;;;;;;;;;;;;;;20.90;40.32;100676.22;4968952;28;19922;-81
2022/04/22 02:50:38;;;;;;;;;;;;;;;20.89;40.13;100674.59;4951348;29;20339;-81
2022/04/22 02:53:04;;;;;;;;;;;;;;;20.88;40.20;100662.81;4951213;28;19919;-81
2022/04/22 02:55:29;;;;;;;;;;;;;;;20.88;40.25;100662.81;4940932;29;19927;-82
2022/04/22 02:57:55;;;;;;;;;;;;;;;20.88;40.09;100662.00;4967296;28;20368;-81
2022/04/22 03:00:20;;;;;;;;;;;;;;;20.88;40.04;100672.97;4953986;28;19930;-82
2022/04/22 03:02:45;;;;;;;;;;;;;;;20.88;40.27;100662.81;4951371;29;19953;-81
2022/04/22 03:05:10;;;;;;;;;;;;;;;20.87;40.10;100658.44;4954058;28;19923;-81
2022/04/22 03:07:37;;;;;;;;;;;;;;;20.87;40.21;100654.91;4938200;29;19927;-82
2022/04/22 03:10:02;;;;;;;;;;;;;;;20.87;40.24;100661.19;4954354;29;19929;-81
2022/04/22 03:12:27;;;;;;;;;;;;;;;20.87;40.18;100661.19;4951430;28;19923;-82
2022/04/22 03:14:53;;;;;;;;;;;;;;;20.86;40.30;100656.00;4941820;29;19930;-82
2022/04/22 03:17:19;;;;;;;;;;;;;;;20.87;40.18;100654.91;4954659;29;19991;-81
2022/04/22 03:19:44;;;;;;;;;;;;;;;20.87;40.10;100652.16;4952442;28;19957;-81
2022/04/22 03:22:10;;;;;;;;;;;;;;;20.86;40.02;100651.31;4949562;29;20382;-81
2022/04/22 03:24:36;;;;;;;;;;;;;;;20.85;40.01;100657.13;4951627;28;19922;-81
2022/04/22 03:27:02;;;;;;;;;;;;;;;20.86;40.15;100656.00;4950631;29;19923;-82
2022/04/22 03:29:27;;;;;;;;;;;;;;;20.86;40.09;100653.25;4946028;29;20463;-82
2022/04/22 03:31:54;;;;;;;;;;;;;;;20.85;40.15;100657.94;4946496;28;19926;-82
2022/04/22 03:34:19;;;;;;;;;;;;;;;20.85;40.12;100654.41;4936416;29;19926;-82
2022/04/22 03:36:44;;;;;;;;;;;;;;;20.86;39.96;100656.00;4949006;29;20385;-81
2022/04/22 03:39:10;;;;;;;;;;;;;;;20.84;40.05;100650.00;4953379;29;20253;-81
2022/04/22 03:41:36;;;;;;;;;;;;;;;20.84;40.03;100661.81;4929852;28;19933;-82
2022/04/22 03:44:02;;;;;;;;;;;;;;;20.83;40.16;100645.66;4949314;29;19926;-82
2022/04/22 03:46:27;;;;;;;;;;;;;;;20.83;40.19;100648.41;4966696;28;19962;-81
2022/04/22 03:48:55;;;;;;;;;;;;;;;20.82;40.31;100647.59;4944738;29;19984;-82
2022/04/22 03:51:20;;;;;;;;;;;;;;;20.82;40.20;100644.84;4955143;28;19918;-81
2022/04/22 03:53:46;;;;;;;;;;;;;;;20.82;40.07;100638.56;4953380;29;19933;-81
2022/04/22 03:58:55;;;;;;;;;;;;;;;20.81;40.04;100634.97;4954225;29;19980;-83
2022/04/22 04:01:20;;;;;;;;;;;;;;;20.81;40.25;100643.22;4969435;28;19961;-81
2022/04/22 04:03:45;;;;;;;;;;;;;;;20.81;39.98;100642.41;4952807;29;19974;-82
2022/04/22 04:06:11;;;;;;;;;;;;;;;20.81;40.16;100631.44;4965888;28;19927;-82
2022/04/22 04:08:36;;;;;;;;;;;;;;;20.80;40.14;100630.63;4942694;29;20435;-81
2022/04/22 04:16:29;;;;;;;;;;;;;;;20.79;40.28;100634.50;4954303;29;19950;-82
2022/04/22 04:23:14;;;;;;;;;;;;;;;20.79;40.12;100636.41;4952274;29;19926;-83
2022/04/22 04:24:26;;;;;;;;;;;;;;;20.78;40.32;100635.63;4953109;29;19932;-81
2022/04/22 04:26:53;;;;;;;;;;;;;;;20.78;40.38;100634.81;4952914;29;20021;-81
2022/04/22 04:29:19;;;;;;;;;;;;;;;20.77;39.94;100636.75;4966291;28;19923;-81
2022/04/22 04:31:46;;;;;;;;;;;;;;;20.77;40.05;100639.50;4950396;29;19977;-81
2022/04/22 04:34:11;;;;;;;;;;;;;;;20.77;40.16;100636.75;4944439;29;19923;-81
2022/04/22 04:36:36;;;;;;;;;;;;;;;20.78;40.12;100637.56;4949453;28;19986;-82
2022/04/22 04:39:02;;;;;;;;;;;;;;;20.77;40.10;100635.94;4961564;28;19933;-82
2022/04/22 04:41:28;;;;;;;;;;;;;;;20.77;40.21;100634.00;4952961;28;19950;-81
2022/04/22 04:43:54;;;;;;;;;;;;;;;20.75;40.15;100634.31;4946889;28;19923;-81
2022/04/22 04:46:19;;;;;;;;;;;;;;;20.77;40.15;100641.44;4949278;28;19927;-82
2022/04/22 04:48:44;;;;;;;;;;;;;;;20.76;40.07;100640.59;4948553;29;19923;-82
2022/04/22 04:51:10;;;;;;;;;;;;;;;20.76;40.22;100635.13;4945971;29;19923;-82
2022/04/22 04:53:35;;;;;;;;;;;;;;;20.75;39.96;100633.50;4949827;29;20025;-82
2022/04/22 04:56:00;;;;;;;;;;;;;;;20.74;40.17;100635.44;4933297;29;20001;-82
2022/04/22 04:58:26;;;;;;;;;;;;;;;20.75;40.08;100642.53;4943397;29;19923;-82
2022/04/22 05:00:52;;;;;;;;;;;;;;;20.74;40.14;100631.91;4965036;28;19939;-81
2022/04/22 05:03:17;;;;;;;;;;;;;;;20.74;40.02;100632.69;4945810;29;19970;-81
2022/04/22 05:05:42;;;;;;;;;;;;;;;20.74;40.19;100629.94;4952365;29;19927;-82
2022/04/22 05:08:07;;;;;;;;;;;;;;;20.73;40.29;100633.81;4950603;28;19919;-82
2022/04/22 05:10:33;;;;;;;;;;;;;;;20.73;40.18;100633.81;4949440;29;20423;-81
2022/04/22 05:13:03;;;;;;;;;;;;;;;20.73;40.05;100633.00;4936125;29;20013;-81
2022/04/22 05:15:28;;;;;;;;;;;;;;;20.73;40.11;100642.03;4952509;29;19923;-81
2022/04/22 05:17:54;;;;;;;;;;;;;;;20.74;40.01;100640.13;4949686;28;20354;-81
2022/04/22 05:20:20;;;;;;;;;;;;;;;20.73;40.16;100638.50;4948258;28;19927;-82
2022/04/22 05:22:46;;;;;;;;;;;;;;;20.73;40.04;100635.75;4952627;29;20364;-81
2022/04/22 05:25:13;;;;;;;;;;;;;;;20.73;40.31;100635.75;4953249;29;19932;-82
2022/04/22 05:27:38;;;;;;;;;;;;;;;20.73;40.13;100636.53;4951428;29;20461;-81
2022/04/22 05:32:48;;;;;;;;;;;;;;;20.71;40.18;100630.59;4948688;29;19929;-81
2022/04/22 05:35:21;;;;;;;;;;;;;;;20.72;40.13;100637.69;4968034;28;20287;-82
2022/04/22 05:37:50;;;;;;;;;;;;;;;20.71;40.23;100636.06;4952303;28;20379;-82
2022/04/22 05:40:16;;;;;;;;;;;;;;;20.71;39.93;100636.06;4952931;28;20363;-81
2022/04/22 05:42:42;;;;;;;;;;;;;;;20.71;40.34;100632.50;4953238;28;20372;-81
2022/04/22 05:45:08;;;;;;;;;;;;;;;20.71;40.22;100636.06;4953850;28;19918;-83
2022/04/22 05:47:34;;;;;;;;;;;;;;;20.71;40.26;100635.25;4962382;28;20375;-81
2022/04/22 05:49:59;;;;;;;;;;;;;;;20.72;40.35;100634.13;4951298;29;19929;-82
2022/04/22 05:52:25;;;;;;;;;;;;;;;20.71;40.22;100636.06;4968050;28;19922;-81
2022/04/22 05:54:50;;;;;;;;;;;;;;;20.71;40.21;100635.25;4952691;28;19989;-82
2022/04/22 05:57:16;;;;;;;;;;;;;;;20.71;40.23;100640.72;4965504;28;19926;-82
2022/04/22 05:59:41;;;;;;;;;;;;;;;20.71;40.03;100646.22;4953638;29;20288;-82
2022/04/22 06:02:07;;;;;;;;;;;;;;;20.71;40.09;100641.56;4967056;28;20287;-82
2022/04/22 06:04:32;;;;;;;;;;;;;;;20.72;40.21;100642.38;4953952;29;19974;-82
2022/04/22 06:06:58;;;;;;;;;;;;;;;20.72;40.24;100648.66;4968370;28;20291;-81
2022/04/22 06:12:07;;;;;;;;;;;;;;;20.70;40.33;100650.91;4942237;29;19977;-82
2022/04/22 06:14:33;;;;;;;;;;;;;;;20.70;40.35;100650.91;4947856;28;19957;-81
2022/04/22 06:16:58;;;;;;;;;;;;;;;20.70;40.24;100650.91;4954440;29;19926;-82
2022/04/22 06:19:23;;;;;;;;;;;;;;;20.71;40.46;100644.31;4952816;29;19927;-82
2022/04/22 06:21:48;;;;;;;;;;;;;;;20.71;40.27;100641.56;4941669;29;19954;-82
2022/04/22 06:24:13;;;;;;;;;;;;;;;20.71;40.15;100647.06;4939412;29;20275;-83
2022/04/22 06:26:39;;;;;;;;;;;;;;;20.72;40.41;100645.13;4971240;28;20282;-83
2022/04/22 06:29:04;;;;;;;;;;;;;;;20.72;40.22;100636.88;4952165;29;19970;-84
2022/04/22 06:31:30;;;;;;;;;;;;;;;20.71;40.40;100640.72;4947753;28;19927;-83
2022/04/22 06:33:56;;;;;;;;;;;;;;;20.72;40.08;100645.13;4971017;28;20016;-82
2022/04/22 06:36:26;;;;;;;;;;;;;;;20.72;40.21;100650.59;4950166;28;19927;-81
2022/04/22 06:38:57;;;;;;;;;;;;;;;20.71;40.03;100638.81;4946042;29;20021;-84
2022/04/22 06:46:51;;;;;;;;;;;;;;;20.72;40.24;100636.88;4941701;29;20423;-83
2022/04/22 06:49:16;;;;;;;;;;;;;;;20.71;40.34;100630.59;4946941;29;19927;-83
2022/04/22 06:51:41;;;;;;;;;;;;;;;20.73;40.38;100630.25;4938871;29;20021;-83
2022/04/22 06:54:07;;;;;;;;;;;;;;;20.72;40.46;100632.19;4955463;28;20383;-84
2022/04/22 06:56:34;;;;;;;;;;;;;;;20.72;40.34;100634.94;4951882;29;19930;-88
2022/04/22 06:58:59;;;;;;;;;;;;;;;20.73;40.33;100630.25;4955335;29;20021;-83
2022/04/22 07:01:25;;;;;;;;;;;;;;;20.73;40.31;100638.50;4954523;29;20009;-83
2022/04/22 07:03:50;;;;;;;;;;;;;;;20.73;40.22;100628.31;4956055;28;19923;-83
2022/04/22 07:06:16;;;;;;;;;;;;;;;20.74;40.34;100631.91;4955280;28;20244;-83
2022/04/22 07:08:42;;;;;;;;;;;;;;;20.73;40.28;100628.31;4951032;28;19934;-83
2022/04/22 07:11:11;;;;;;;;;;;;;;;20.74;40.24;100629.94;4961031;28;19926;-83
2022/04/22 07:13:36;;;;;;;;;;;;;;;20.74;40.22;100627.22;4955500;28;19918;-83
2022/04/22 07:16:02;;;;;;;;;;;;;;;20.75;40.49;100628.81;4955570;28;19929;-83
2022/04/22 07:18:28;;;;;;;;;;;;;;;20.75;40.41;100623.31;4955487;28;20005;-83
2022/04/22 07:20:53;;;;;;;;;;;;;;;20.75;40.26;100623.31;4970100;28;19966;-82
2022/04/22 07:23:18;;;;;;;;;;;;;;;20.77;40.29;100616.72;4951229;29;19926;-82
2022/04/22 07:25:46;;;;;;;;;;;;;;;20.77;40.32;100614.00;4950407;29;20012;-82
2022/04/22 07:28:12;;;;;;;;;;;;;;;20.77;40.50;100620.28;4955168;28;19929;-82
2022/04/22 07:30:39;;;;;;;;;;;;;;;20.78;40.33;100621.88;4970279;28;19958;-82
2022/04/22 07:33:05;;;;;;;;;;;;;;;20.79;40.44;100608.97;4954140;28;19926;-83
2022/04/22 07:35:30;;;;;;;;;;;;;;;20.81;40.31;100606.72;4952816;28;19934;-82
2022/04/22 07:37:56;;;;;;;;;;;;;;;20.83;40.49;100612.72;4966809;28;19925;-83
2022/04/22 07:40:21;;;;;;;;;;;;;;;20.85;40.63;100607.72;4952188;29;19931;-86
2022/04/22 07:48:18;;;;;;;;;;;;;;;20.88;40.72;100626.31;4967132;28;19930;-85
2022/04/22 07:50:46;;;;;;;;;;;;;;;20.89;40.60;100630.66;4953824;28;19922;-87
2022/04/22 07:53:11;;;;;;;;;;;;;;;20.90;40.90;100627.59;4953266;28;19930;-81
2022/04/22 07:55:37;;;;;;;;;;;;;;;20.90;40.72;100624.88;4953466;29;19919;-86
2022/04/22 07:58:02;;;;;;;;;;;;;;;20.92;40.77;100630.06;4954788;28;19923;-82
2022/04/22 08:00:27;;;;;;;;;;;;;;;20.92;41.03;100633.59;4940180;28;19923;-83
2022/04/22 08:02:53;;;;;;;;;;;;;;;20.93;41.05;100620.69;4954125;29;19929;-89
2022/04/22 08:05:18;;;;;;;;;;;;;;;20.94;41.10;100619.53;4948046;29;19926;-79
2022/04/22 08:07:43;;;;;;;;;;;;;;;20.95;41.10;100621.97;4954284;29;19922;-79
2022/04/22 08:10:08;;;;;;;;;;;;;;;20.95;41.01;100610.19;4954189;29;20363;-78
2022/04/22 08:12:34;;;;;;;;;;;;;;;20.96;41.15;100611.81;4954691;28;20201;-78
2022/04/22 08:14:59;;;;;;;;;;;;;;;20.98;41.44;100608.75;4954309;28;19966;-78
2022/04/22 08:17:25;;;;;;;;;;;;;;;20.98;41.32;100609.56;4955058;29;20021;-81
2022/04/22 08:19:50;;;;;;;;;;;;;;;20.99;41.37;100611.19;4958334;28;19974;-81
2022/04/22 08:22:16;;;;;;;;;;;;;;;20.99;41.54;100611.19;4978979;28;20025;-95
2022/04/22 08:24:42;;;;;;;;;;;;;;;21.00;41.45;100614.75;4957873;28;20338;-84
2022/04/22 08:27:07;;;;;;;;;;;;;;;21.00;41.43;100601.81;4961554;28;20474;-81
2022/04/22 08:29:33;;;;;;;;;;;;;;;21.01;41.69;100608.91;4957759;28;19927;-81
2022/04/22 08:31:58;;;;;;;;;;;;;;;21.01;41.46;100614.41;4955379;29;20323;-81
2022/04/22 08:34:23;;;;;;;;;;;;;;;21.01;41.64;100608.91;4956348;28;20264;-82
2022/04/22 08:36:48;;;;;;;;;;;;;;;21.01;41.72;100597.13;4938850;29;19922;-81
2022/04/22 08:39:16;;;;;;;;;;;;;;;21.01;41.57;100595.19;4955106;29;20396;-81
2022/04/22 08:41:42;;;;;;;;;;;;;;;21.00;41.71;100601.81;4956336;28;20024;-81
2022/04/22 08:44:11;;;;;;;;;;;;;;;20.99;41.85;100589.22;4954937;29;20383;-81
2022/04/22 08:52:05;;;;;;;;;;;;;;;21.00;41.75;100584.53;4951722;28;19973;-81
2022/04/22 08:54:35;;;;;;;;;;;;;;;20.99;41.80;100586.47;4951089;29;19968;-82
2022/04/22 08:57:01;;;;;;;;;;;;;;;20.99;41.75;100580.16;4937061;29;19923;-81
2022/04/22 08:59:26;;;;;;;;;;;;;;;20.99;41.50;100572.75;4970120;28;19919;-80
2022/04/22 09:01:52;;;;;;;;;;;;;;;20.99;41.65;100547.22;4955257;28;19930;-80
2022/04/22 09:04:17;;;;;;;;;;;;;;;20.99;41.63;100559.03;4955451;29;20002;-80
2022/04/22 09:06:45;;;;;;;;;;;;;;;21.01;41.66;100555.94;4954626;28;20286;-79
2022/04/22 09:09:11;;;;;;;;;;;;;;;21.00;41.63;100568.88;4952738;29;20462;-79
2022/04/22 09:11:40;;;;;;;;;;;;;;;21.01;41.69;100554.00;4954442;29;19930;-83
2022/04/22 09:14:05;;;;;;;;;;;;;;;21.01;41.53;100551.25;4953322;28;19954;-82
2022/04/22 09:16:31;;;;;;;;;;;;;;;21.02;41.73;100552.88;4950024;29;20013;-83
2022/04/22 09:19:01;;;;;;;;;;;;;;;21.04;41.67;100569.03;4953403;29;19919;-85
2022/04/22 09:21:26;;;;;;;;;;;;;;;21.02;41.41;100561.13;4938685;29;19965;-86
2022/04/22 09:23:53;;;;;;;;;;;;;;;21.04;41.49;100569.88;4953006;28;19922;-84
2022/04/22 09:26:23;;;;;;;;;;;;;;;21.06;41.74;100566.78;4947706;28;19949;-85
2022/04/22 09:29:02;;;;;;;;;;;;;;;21.06;41.54;100569.53;4968938;28;19918;-84
2022/04/22 09:31:28;;;;;;;;;;;;;;;21.08;41.74;100551.59;4964989;28;19919;-83
2022/04/22 09:33:54;;;;;;;;;;;;;;;21.08;41.32;100557.09;4967956;28;20018;-84
2022/04/22 09:44:49;;;;;;;;;;;;;;;21.12;41.38;100538.06;4952399;29;19926;-86
2022/04/22 09:47:15;;;;;;;;;;;;;;;21.11;41.22;100533.69;4950537;29;19918;-85
2022/04/22 09:49:43;;;;;;;;;;;;;;;21.12;41.32;100535.31;4956054;28;19922;-85
2022/04/22 09:52:08;;;;;;;;;;;;;;;21.12;41.63;100527.88;4958601;28;19919;-87
2022/04/22 09:54:33;;;;;;;;;;;;;;;21.13;41.61;100531.44;4957871;28;20263;-91
2022/04/22 09:57:00;;;;;;;;;;;;;;;21.14;41.24;100530.28;4955945;28;19922;-88
2022/04/22 09:59:29;;;;;;;;;;;;;;;21.15;41.33;100527.25;4947343;28;20095;-89
2022/04/22 10:02:00;;;;;;;;;;;;;;;21.17;41.50;100527.72;4951889;29;19919;-91
2022/04/22 10:04:26;;;;;;;;;;;;;;;21.18;41.48;100529.34;4966251;28;19960;-93
2022/04/22 10:06:52;;;;;;;;;;;;;;;21.21;41.50;100524.34;4955629;28;19927;-89
2022/04/22 10:09:18;;;;;;;;;;;;;;;21.21;41.20;100518.84;4952683;29;19933;-86
2022/04/22 10:11:47;;;;;;;;;;;;;;;21.23;41.42;100505.59;4963147;28;20005;-84
2022/04/22 10:14:13;;;;;;;;;;;;;;;21.24;41.28;100509.97;4964090;28;20003;-85
2022/04/22 10:16:38;;;;;;;;;;;;;;;21.24;41.32;100502.53;4941859;29;20399;-86
2022/04/22 10:19:05;;;;;;;;;;;;;;;21.25;41.52;100501.41;4965578;28;19958;-81
2022/04/22 10:21:31;;;;;;;;;;;;;;;21.26;41.43;100502.22;4970385;28;19919;-80
2022/04/22 10:23:56;;;;;;;;;;;;;;;21.26;41.65;100504.97;4953056;28;19922;-80
2022/04/22 10:26:22;;;;;;;;;;;;;;;21.26;41.47;100496.72;4954525;28;19926;-80
2022/04/22 10:28:48;;;;;;;;;;;;;;;21.25;41.64;100501.41;4967839;28;20463;-81
2022/04/22 10:31:13;;;;;;;;;;;;;;;21.25;41.69;100501.41;4968621;28;19925;-81
2022/04/22 10:33:40;;;;;;;;;;;;;;;21.26;41.66;100496.72;4952594;29;19945;-83
2022/04/22 10:36:06;;;;;;;;;;;;;;;21.26;41.77;100502.22;4954815;29;19926;-80
2022/04/22 10:38:44;;;;;;;;;;;;;;;21.26;41.58;100493.97;4938588;29;19922;-83
2022/04/22 10:41:19;;;;;;;;;;;;;;;21.24;41.67;100499.78;4951997;28;19919;-83
2022/04/22 10:49:35;;;;;;;;;;;;;;;21.20;41.86;100484.28;4956158;29;19997;-79
2022/04/22 10:52:19;;;;;;;;;;;;;;;21.20;41.86;100496.06;4956108;28;19952;-83
2022/04/22 10:54:51;;;;;;;;;;;;;;;21.20;41.92;100496.06;4953050;29;21488;-90
2022/04/22 10:57:17;;;;;;;;;;;;;;;21.18;41.73;100474.41;4946027;29;20287;-82
2022/04/22 10:59:43;;;;;;;;;;;;;;;21.22;41.79;100476.50;4967310;28;19922;-81
2022/04/22 11:02:28;;;;;;;;;;;;;;;21.23;41.86;100481.69;4949679;29;19978;-79
2022/04/22 11:05:12;;;;;;;;;;;;;;;21.25;41.76;100481.38;4948588;29;19918;-82
2022/04/22 11:07:59;;;;;;;;;;;;;;;21.26;41.74;100477.50;4962506;28;20284;-81
2022/04/22 11:10:25;;;;;;;;;;;;;;;21.24;41.73;100469.56;4952442;29;19922;-82
2022/04/22 11:12:54;;;;;;;;;;;;;;;21.24;41.85;100464.06;4942919;29;19995;-82
2022/04/22 11:15:39;;;;;;;;;;;;;;;21.24;41.84;100464.06;4951689;29;19939;-82
2022/04/22 11:18:04;;;;;;;;;;;;;;;21.24;41.80;100460.50;4941954;29;19918;-81
2022/04/22 11:20:29;;;;;;;;;;;;;;;21.23;41.52;100456.97;4954654;28;19918;-87
2022/04/22 11:22:59;;;;;;;;;;;;;;;21.24;41.66;100452.28;4954250;28;19923;-83
2022/04/22 11:25:25;;;;;;;;;;;;;;;21.23;41.61;100459.72;4936787;29;19927;-84
2022/04/22 11:27:53;;;;;;;;;;;;;;;21.22;41.57;100455.38;4954195;28;20276;-81
2022/04/22 11:30:18;;;;;;;;;;;;;;;21.23;41.29;100461.66;4952620;28;20355;-81
2022/04/22 11:32:48;;;;;;;;;;;;;;;21.21;41.36;100461.97;4954728;28;19976;-81
2022/04/22 11:35:14;;;;;;;;;;;;;;;21.21;41.29;100459.22;4941250;28;20394;-83
2022/04/22 11:37:40;;;;;;;;;;;;;;;21.20;41.16;100457.63;4952782;29;19919;-81
2022/04/22 11:40:08;;;;;;;;;;;;;;;21.20;41.17;100465.06;4968800;28;20268;-90
2022/04/22 11:42:37;;;;;;;;;;;;;;;21.20;41.40;100459.56;4953008;28;19927;-79
2022/04/22 11:45:04;;;;;;;;;;;;;;;21.20;41.41;100457.63;4958986;28;20028;-80
2022/04/22 11:47:29;;;;;;;;;;;;;;;21.20;41.01;100451.31;4956863;28;19922;-80
2022/04/22 11:49:58;;;;;;;;;;;;;;;21.19;41.22;100455.97;4959126;28;19926;-80
2022/04/22 11:52:26;;;;;;;;;;;;;;;21.18;41.14;100446.13;4959017;28;19934;-79
2022/04/22 11:54:52;;;;;;;;;;;;;;;21.17;41.23;100450.81;4950843;28;19929;-80
2022/04/22 11:57:17;;;;;;;;;;;;;;;21.17;40.89;100448.09;4957276;28;19934;-80
2022/04/22 12:05:31;;;;;;;;;;;;;;;21.18;40.90;100454.38;4956279;28;20298;-80
2022/04/22 12:05:34;;;;;;;;;;;;;;;21.15;40.96;100446.78;4940864;29;19930;-80
2022/04/22 12:08:05;;;;;;;;;;;;;;;21.14;40.93;100447.91;4953400;28;19925;-80
2022/04/22 12:10:30;;;;;;;;;;;;;;;21.13;40.76;100436.09;4948828;29;19966;-81
2022/04/22 12:13:00;;;;;;;;;;;;;;;21.14;40.79;100442.41;4956994;28;19958;-80
2022/04/22 12:15:26;;;;;;;;;;;;;;;21.14;40.90;100445.16;4968851;28;19918;-80
2022/04/22 12:17:52;;;;;;;;;;;;;;;21.12;40.96;100442.75;4964778;28;19978;-80
2022/04/22 12:20:17;;;;;;;;;;;;;;;21.12;40.71;100440.00;4932852;29;19927;-82
2022/04/22 12:22:43;;;;;;;;;;;;;;;21.14;40.90;100445.16;4935988;29;19923;-80
2022/04/22 12:27:01;;;;;;;;;;;;;;;21.13;40.75;100430.63;5100506;27;19917;-80
2022/04/22 12:29:26;;;;;;;;;;;;;;;21.13;40.85;100433.38;5053841;28;20372;-82
2022/04/22 12:31:53;;;;;;;;;;;;;;;21.14;40.47;100436.91;5050982;28;20442;-81
2022/04/22 12:34:32;;;;;;;;;;;;;;;21.14;40.69;100435.00;5052204;28;19921;-82
2022/04/22 12:37:02;;;;;;;;;;;;;;;21.15;40.51;100428.38;5053652;28;19967;-81
2022/04/22 12:39:34;;;;;;;;;;;;;;;21.15;40.55;100427.56;5048738;28;19959;-81
2022/04/22 12:41:59;;;;;;;;;;;;;;;21.15;40.59;100442.09;5059664;28;20003;-82
2022/04/22 12:44:25;;;;;;;;;;;;;;;21.15;40.66;100422.88;5059598;28;20012;-81
2022/04/22 12:52:23;;;;;;;;;;;;;;;21.16;40.29;100413.50;5062714;28;20071;-81
2022/04/22 12:54:49;;;;;;;;;;;;;;;21.16;40.66;100418.97;5049788;28;20027;-81
2022/04/22 12:57:19;;;;;;;;;;;;;;;21.16;40.46;100402.50;5054129;28;20035;-81
2022/04/22 12:59:45;;;;;;;;;;;;;;;21.16;40.53;100410.75;5068743;28;20270;-81
2022/04/22 13:02:11;;;;;;;;;;;;;;;21.16;40.27;100408.00;5053159;28;19917;-82
2022/04/22 13:04:50;;;;;;;;;;;;;;;21.17;40.80;100400.59;5031233;28;20015;-83
2022/04/22 13:07:15;;;;;;;;;;;;;;;21.17;40.31;100400.59;5043770;28;19922;-83
2022/04/22 13:09:40;;;;;;;;;;;;;;;21.18;40.59;100400.25;5047619;28;20377;-82
2022/04/22 13:12:06;;;;;;;;;;;;;;;21.18;40.47;100391.19;5068319;28;19927;-82
2022/04/22 13:14:31;;;;;;;;;;;;;;;21.19;40.52;100390.06;5070390;28;19928;-81
2022/04/22 13:16:56;;;;;;;;;;;;;;;21.21;40.49;100393.28;5103527;28;19920;-81
2022/04/22 13:28:33;;;;;;;;;;;;;;;21.23;40.54;100377.31;5070328;28;19932;-82
2022/04/22 13:30:59;;;;;;;;;;;;;;;21.24;40.62;100380.84;5052413;28;19921;-82
2022/04/22 13:33:25;;;;;;;;;;;;;;;21.25;40.36;100377.81;5050769;28;19927;-86
2022/04/22 13:35:51;;;;;;;;;;;;;;;21.25;40.28;100377.81;5021395;28;19921;-86
2022/04/22 13:38:16;;;;;;;;;;;;;;;21.26;40.35;100382.16;5062559;28;20280;-88
2022/04/22 13:40:42;;;;;;;;;;;;;;;21.26;40.28;100378.59;5038576;28;19956;-86
2022/04/22 13:43:07;;;;;;;;;;;;;;;21.27;40.49;100383.78;5033414;28;19917;-89
2022/04/22 13:53:45;;;;;;;;;;;;;;;21.30;40.53;100368.59;5073746;28;20051;-85
2022/04/22 13:56:10;;;;;;;;;;;;;;;21.30;40.46;100365.84;5054595;28;20019;-88
2022/04/22 13:58:37;;;;;;;;;;;;;;;21.31;40.40;100359.22;5060278;28;20384;-88
2022/04/22 14:01:03;;;;;;;;;;;;;;;21.32;40.50;100360.84;5047486;28;19925;-88